Pagrindinis puslapis
METAR-TAF:

METAR-TAF

Oro uostai :

Regional_Airport

Clinton, Oklahoma, Jungtinės Amerikos Valstijos

platuma: 35-32-17N, ilguma: 098-55-17W, Aukštis: 492 m

Dabartinis oras

Ataskaita buvo paskelbta 12 minutes, ne 09:35 UTC
Ramus vėjas
Temperatūra 13°C
Drėgmė 94%
Slėgis 1023 hPa
Matomumas: 16.1 km
Giedras dangus

METAR: KCLK 290935Z AUTO 00000KT 10SM CLR 13/12 A3020 RMK AO2

Laikas: 04:47 (09:47 UTC)


TAF: trūkstamas

Orai ataskaitas ir orų prognozės (METAR, TAF).

turimą stotys yra geltonos ir raudonos taškus žemėlapyje.

Perkelti pele per norėdami pamatyti stoties vardą.

Tada spustelėkite, norėdami matyti oro stebėjimo ir prognozės.

Norėdami pakeisti žemėlapį: spustelėkite ant žalios mygtukų su juodo kryžiaus žemyn,; žalią mygtuką su brūkšneliu, jei norite nutolinti; arba žalių rodyklių gretimoms žemėlapius.


METAR-TAF: